Time;durP1;ratioP1;P1;durP2;ratioP2;P2;SDS_P1;SDS_P2;PMS_P1;PMS_P2;Temp;Humidity;BMP_temperature;BMP_pressure;BME280_temperature;BME280_humidity;BME280_pressure;Samples;Min_cycle;Max_cycle;Signal;HPM_P1;HPM_P2
2022/08/16 00:02:11;;;;;;;;;39.00;34.00;;;;;23.66;55.40;100273.78;5120739;27;45120;-61
2022/08/16 00:04:36;;;;;;;;;34.67;31.67;;;;;23.62;55.37;100269.88;5119046;27;46206;-60
2022/08/16 00:07:03;;;;;;;;;31.33;30.33;;;;;23.55;55.62;100271.88;5120435;27;45272;-60
2022/08/16 00:09:28;;;;;;;;;31.33;31.00;;;;;23.51;55.71;100265.28;5120390;27;45311;-60
2022/08/16 00:11:54;;;;;;;;;30.67;28.67;;;;;23.44;55.70;100267.31;5120306;27;45314;-60
2022/08/16 00:14:24;;;;;;;;;31.00;31.00;;;;;23.44;55.96;100281.72;5120228;27;45455;-60
2022/08/16 00:16:49;;;;;;;;;35.67;31.33;;;;;23.41;56.30;100278.63;5120190;27;45195;-60
2022/08/16 00:19:18;;;;;;;;;33.00;31.33;;;;;23.40;55.89;100280.50;5120030;27;45463;-60
2022/08/16 00:21:45;;;;;;;;;34.00;31.33;;;;;23.38;55.90;100277.22;5120099;27;45304;-60
2022/08/16 00:24:12;;;;;;;;;32.67;29.67;;;;;23.36;56.04;100274.75;5119438;27;46780;-60
2022/08/16 00:26:41;;;;;;;;;30.67;30.67;;;;;23.29;55.90;100265.09;5119670;27;45377;-60
2022/08/16 00:29:06;;;;;;;;;35.00;31.67;;;;;23.36;56.11;100280.16;5119886;27;45317;-61
2022/08/16 00:31:33;;;;;;;;;36.00;32.00;;;;;23.25;56.38;100274.78;5120024;27;45418;-60
2022/08/16 00:33:59;;;;;;;;;34.67;31.67;;;;;23.30;56.35;100285.75;5119641;27;46400;-60
2022/08/16 00:36:24;;;;;;;;;34.33;33.33;;;;;23.20;56.39;100271.94;5118451;27;45499;-60
2022/08/16 00:38:49;;;;;;;;;38.00;34.33;;;;;23.21;56.64;100271.69;5120091;27;45782;-60
2022/08/16 00:41:15;;;;;;;;;37.67;33.67;;;;;23.35;56.30;100289.38;5120006;27;45440;-60
2022/08/16 00:43:40;;;;;;;;;37.00;34.67;;;;;23.26;56.33;100266.41;5119641;27;47549;-62
2022/08/16 00:46:10;;;;;;;;;36.00;32.67;;;;;23.37;56.39;100276.41;5119827;27;45418;-61
2022/08/16 00:48:35;;;;;;;;;38.00;31.33;;;;;23.36;55.82;100280.16;5119673;27;45179;-60
2022/08/16 00:51:02;;;;;;;;;33.67;32.00;;;;;23.35;56.36;100283.94;5119340;27;45502;-61
2022/08/16 00:53:28;;;;;;;;;35.33;33.00;;;;;23.35;56.03;100283.94;5118992;27;47777;-60
2022/08/16 00:55:57;;;;;;;;;41.33;34.67;;;;;23.34;56.04;100281.47;5119114;27;45449;-61
2022/08/16 00:58:26;;;;;;;;;35.00;32.33;;;;;23.26;55.90;100263.69;5119609;27;45207;-60
2022/08/16 01:00:52;;;;;;;;;31.00;31.00;;;;;23.37;55.87;100270.97;5119579;27;45541;-60
2022/08/16 01:03:20;;;;;;;;;35.33;33.33;;;;;23.36;56.02;100263.91;5119353;27;47243;-61
2022/08/16 01:05:46;;;;;;;;;36.00;32.33;;;;;23.38;56.13;100266.38;5119134;27;45420;-61
2022/08/16 01:08:13;;;;;;;;;36.00;31.67;;;;;23.00;56.07;100193.69;5119425;27;45559;-60
2022/08/16 01:10:39;;;;;;;;;39.00;33.33;;;;;23.38;55.80;100255.50;5119683;27;45269;-60
2022/08/16 01:13:09;;;;;;;;;31.67;29.67;;;;;23.38;55.60;100250.91;5119010;27;47404;-60
2022/08/16 01:15:37;;;;;;;;;32.33;31.67;;;;;23.40;55.71;100261.53;5118587;27;45476;-60
2022/08/16 01:18:07;;;;;;;;;33.00;31.33;;;;;23.33;55.58;100256.25;5119382;27;45324;-64
2022/08/16 01:20:39;;;;;;;;;33.00;32.33;;;;;23.12;56.02;100216.19;5119140;27;45424;-60
2022/08/16 01:23:13;;;;;;;;;32.00;31.33;;;;;23.33;55.90;100258.13;5119001;27;46427;-61
2022/08/16 01:25:43;;;;;;;;;34.33;33.33;;;;;23.35;55.97;100256.81;5117577;27;46123;-61
2022/08/16 01:28:13;;;;;;;;;32.00;30.33;;;;;23.24;55.96;100240.59;5117620;27;45393;-60
2022/08/16 01:30:42;;;;;;;;;32.67;31.00;;;;;23.33;56.38;100260.84;5117716;27;45551;-60
2022/08/16 01:33:08;;;;;;;;;37.33;31.33;;;;;23.33;56.50;100268.97;5118734;27;46427;-60
2022/08/16 01:35:57;;;;;;;;;33.00;30.67;;;;;23.29;56.26;100252.38;5118593;27;45298;-60
2022/08/16 01:38:30;;;;;;;;;39.00;33.67;;;;;23.32;55.92;100270.88;5118452;27;45362;-61
2022/08/16 01:41:02;;;;;;;;;35.00;33.67;;;;;23.33;56.00;100258.13;5118602;27;45269;-60
2022/08/16 01:43:30;;;;;;;;;29.33;29.33;;;;;23.30;56.21;100248.59;5118031;27;47021;-60
2022/08/16 01:45:57;;;;;;;;;32.00;30.67;;;;;23.23;56.62;100238.94;5118334;27;45297;-61
2022/08/16 01:48:26;;;;;;;;;31.67;31.33;;;;;23.37;55.98;100257.41;5117005;27;45275;-61
2022/08/16 01:50:52;;;;;;;;;39.67;34.00;;;;;23.36;55.83;100247.63;5118899;27;45247;-61
2022/08/16 01:53:18;;;;;;;;;38.67;33.67;;;;;23.36;55.67;100244.09;5118299;27;47497;-60
2022/08/16 01:55:44;;;;;;;;;27.33;27.33;;;;;23.44;56.01;100261.91;5118134;27;45331;-60
2022/08/16 01:58:13;;;;;;;;;37.00;33.00;;;;;22.45;56.00;100100.09;5118333;27;45305;-61
2022/08/16 02:00:39;;;;;;;;;37.00;34.00;;;;;23.38;55.89;100248.19;5118880;27;45234;-60
2022/08/16 02:03:04;;;;;;;;;38.00;34.33;;;;;23.40;55.93;100250.66;5118308;27;46824;-61
2022/08/16 02:05:30;;;;;;;;;32.33;29.67;;;;;23.47;55.96;100254.09;5099994;27;45216;-60
2022/08/16 02:07:56;;;;;;;;;36.33;33.00;;;;;23.46;55.96;100257.06;5118317;27;45479;-61
2022/08/16 02:10:22;;;;;;;;;37.33;33.00;;;;;23.47;55.81;100258.69;5118431;27;45330;-60
2022/08/16 02:12:48;;;;;;;;;35.33;31.33;;;;;23.47;55.94;100261.41;5118150;27;46659;-60
2022/08/16 02:15:15;;;;;;;;;37.67;34.67;;;;;23.43;55.66;100246.69;5118105;27;45323;-61
2022/08/16 02:17:42;;;;;;;;;30.33;29.67;;;;;23.37;55.78;100237.59;5118406;27;45357;-61
2022/08/16 02:20:08;;;;;;;;;26.67;25.33;;;;;23.50;55.89;100256.31;5118297;27;45268;-61
2022/08/16 02:22:34;;;;;;;;;34.00;30.67;;;;;23.38;55.53;100234.63;5117945;27;46290;-60
2022/08/16 02:24:59;;;;;;;;;43.00;35.33;;;;;23.47;55.02;100247.84;5117944;27;45311;-60
2022/08/16 02:27:25;;;;;;;;;35.00;31.67;;;;;23.47;55.96;100264.13;5117013;27;45283;-61
2022/08/16 02:29:50;;;;;;;;;37.00;34.00;;;;;23.44;55.71;100253.75;5118203;27;45502;-61
2022/08/16 02:32:16;;;;;;;;;34.67;32.00;;;;;23.41;55.84;100249.59;5117870;27;46459;-60
2022/08/16 02:34:42;;;;;;;;;38.67;34.33;;;;;22.74;55.80;100136.22;5117766;27;45405;-60
2022/08/16 02:37:07;;;;;;;;;34.67;31.67;;;;;23.25;55.53;100215.94;5118156;27;45164;-60
2022/08/16 02:39:33;;;;;;;;;31.00;29.67;;;;;22.75;55.70;100132.44;5118107;27;45444;-60
2022/08/16 02:41:59;;;;;;;;;35.67;33.33;;;;;23.14;56.22;100192.38;5117236;27;45679;-60
2022/08/16 02:44:24;;;;;;;;;33.67;31.33;;;;;23.26;55.79;100209.44;5117665;27;45306;-60
2022/08/16 02:46:50;;;;;;;;;34.67;30.67;;;;;23.29;56.00;100208.16;5118233;27;45407;-61
2022/08/16 02:49:15;;;;;;;;;37.33;33.00;;;;;23.20;55.75;100188.69;5117875;27;45440;-59
2022/08/16 02:51:41;;;;;;;;;34.00;32.67;;;;;23.24;56.03;100208.06;5116152;27;47665;-60
2022/08/16 02:54:08;;;;;;;;;30.67;29.33;;;;;23.00;56.05;100174.72;5117644;27;45378;-59
2022/08/16 02:56:34;;;;;;;;;36.00;31.33;;;;;23.31;56.05;100214.16;5117785;27;45267;-60
2022/08/16 02:58:59;;;;;;;;;33.67;31.00;;;;;23.22;55.93;100193.88;5117593;27;45208;-61
2022/08/16 03:01:30;;;;;;;;;34.33;32.00;;;;;22.80;56.18;100114.63;5117321;27;45436;-60
2022/08/16 03:03:58;;;;;;;;;38.00;33.33;;;;;22.93;55.71;100119.81;5117446;27;45501;-61
2022/08/16 03:06:23;;;;;;;;;39.00;33.00;;;;;23.35;56.40;100188.19;5117539;27;45298;-60
2022/08/16 03:08:49;;;;;;;;;35.33;31.67;;;;;23.24;56.42;100175.50;5116020;27;45562;-60
2022/08/16 03:11:17;;;;;;;;;37.33;34.00;;;;;23.29;56.40;100200.84;5115727;27;46403;-60
2022/08/16 03:13:47;;;;;;;;;44.00;37.00;;;;;23.30;56.27;100197.06;5116932;27;45277;-61
2022/08/16 03:16:12;;;;;;;;;37.33;33.00;;;;;23.27;55.94;100194.81;5117539;27;45246;-61
2022/08/16 03:18:39;;;;;;;;;40.00;35.33;;;;;23.24;56.64;100200.75;5117334;27;45365;-61
2022/08/16 03:21:05;;;;;;;;;39.67;33.33;;;;;23.22;56.81;100197.41;5117127;27;47780;-61
2022/08/16 03:23:31;;;;;;;;;42.67;35.00;;;;;23.18;56.86;100207.09;5117034;27;45490;-60
2022/08/16 03:25:56;;;;;;;;;39.00;32.33;;;;;23.16;56.58;100208.41;5117195;27;45608;-61
2022/08/16 03:28:22;;;;;;;;;43.33;36.67;;;;;23.24;56.22;100216.19;5117133;27;47431;-61
2022/08/16 03:30:47;;;;;;;;;36.67;33.67;;;;;23.26;56.52;100214.88;5116851;27;46544;-61
2022/08/16 03:33:13;;;;;;;;;38.00;34.67;;;;;23.23;56.59;100215.38;5117193;27;45298;-61
2022/08/16 03:35:39;;;;;;;;;40.00;34.67;;;;;23.27;56.76;100215.69;5117398;27;45402;-63
2022/08/16 03:38:07;;;;;;;;;38.00;35.00;;;;;23.23;56.90;100209.13;5118530;27;45363;-60
2022/08/16 03:40:34;;;;;;;;;48.33;37.67;;;;;23.07;56.63;100194.41;5120387;27;45349;-61
2022/08/16 03:43:02;;;;;;;;;36.33;34.33;;;;;23.15;56.79;100226.56;5120511;27;45256;-61
2022/08/16 03:45:28;;;;;;;;;39.00;34.67;;;;;23.16;56.85;100230.91;5120286;27;45572;-60
2022/08/16 03:47:53;;;;;;;;;37.33;34.67;;;;;23.13;56.74;100222.44;5120138;27;45432;-60
2022/08/16 03:50:19;;;;;;;;;35.67;34.00;;;;;23.14;56.83;100232.22;5119761;27;50208;-62
2022/08/16 03:52:44;;;;;;;;;34.33;32.00;;;;;22.58;56.52;100139.66;5118864;27;45557;-62
2022/08/16 03:55:10;;;;;;;;;40.67;36.33;;;;;22.98;57.60;100228.34;5120181;27;45357;-62
2022/08/16 03:57:36;;;;;;;;;36.67;33.67;;;;;22.89;58.16;100256.91;5120791;27;45426;-60
2022/08/16 04:00:14;;;;;;;;;34.00;31.33;;;;;22.76;58.83;100239.78;5120257;27;46938;-62
2022/08/16 04:02:42;;;;;;;;;29.67;28.00;;;;;22.47;58.83;100194.66;5120334;27;45228;-60
2022/08/16 04:05:08;;;;;;;;;32.00;30.33;;;;;22.72;58.98;100233.19;5120159;27;45432;-61
2022/08/16 04:07:35;;;;;;;;;29.33;28.33;;;;;22.67;58.90;100245.81;5120541;27;45350;-61
2022/08/16 04:10:01;;;;;;;;;32.33;31.00;;;;;22.64;59.38;100236.25;5119966;27;46526;-63
2022/08/16 04:12:26;;;;;;;;;34.33;31.00;;;;;22.66;59.43;100241.44;5119925;27;45359;-61
2022/08/16 04:14:51;;;;;;;;;36.33;31.67;;;;;22.56;59.38;100238.47;5120328;27;45307;-60
2022/08/16 04:17:17;;;;;;;;;37.00;33.00;;;;;22.57;59.25;100230.13;5120227;27;45407;-60
2022/08/16 04:19:43;;;;;;;;;35.33;33.67;;;;;22.60;59.28;100235.06;5120013;27;46390;-60
2022/08/16 04:22:10;;;;;;;;;33.00;31.33;;;;;22.61;59.14;100234.00;5120097;27;45314;-60
2022/08/16 04:24:35;;;;;;;;;35.00;32.67;;;;;22.67;58.85;100238.50;5119902;27;45336;-60
2022/08/16 04:27:01;;;;;;;;;32.00;31.00;;;;;22.66;59.04;100234.13;5119926;27;45175;-60
2022/08/16 04:29:27;;;;;;;;;29.33;28.33;;;;;22.70;58.75;100238.03;5119689;27;52515;-60
2022/08/16 04:31:53;;;;;;;;;35.67;30.33;;;;;22.72;59.42;100238.59;5119505;27;45316;-61
2022/08/16 04:34:19;;;;;;;;;30.67;29.67;;;;;22.71;58.80;100242.38;5119201;27;45531;-60
2022/08/16 04:36:44;;;;;;;;;34.00;32.00;;;;;22.26;58.94;100160.88;5119409;27;45642;-60
2022/08/16 04:39:09;;;;;;;;;32.67;31.00;;;;;22.72;59.03;100241.31;5119245;27;46466;-61
2022/08/16 04:41:35;;;;;;;;;33.33;28.67;;;;;22.61;58.71;100222.34;5119510;27;45462;-62
2022/08/16 04:44:00;;;;;;;;;35.33;33.00;;;;;22.77;58.42;100249.56;5119718;27;45311;-61
2022/08/16 04:46:26;;;;;;;;;26.67;25.67;;;;;22.81;58.79;100238.22;5120015;27;45391;-61
2022/08/16 04:48:51;;;;;;;;;30.67;28.67;;;;;22.68;58.25;100220.34;5119242;27;47159;-61
2022/08/16 04:51:16;;;;;;;;;31.00;28.67;;;;;22.50;58.19;100183.38;5118813;27;45276;-60
2022/08/16 04:53:42;;;;;;;;;30.33;26.33;;;;;22.89;58.60;100243.34;5118945;27;45705;-60
2022/08/16 04:56:08;;;;;;;;;32.67;30.67;;;;;22.74;58.16;100228.34;5119262;27;45372;-61
2022/08/16 04:58:33;;;;;;;;;27.67;27.67;;;;;22.87;58.48;100264.44;5119230;27;46464;-60
2022/08/16 05:01:00;;;;;;;;;28.67;28.67;;;;;22.90;58.27;100248.53;5118949;27;45501;-60
2022/08/16 05:03:26;;;;;;;;;25.33;23.33;;;;;22.91;58.45;100254.78;5119410;27;45216;-61
2022/08/16 05:05:51;;;;;;;;;25.33;24.67;;;;;22.90;57.70;100263.97;5119363;27;45502;-61
2022/08/16 05:08:16;;;;;;;;;24.33;24.33;;;;;22.86;58.20;100254.66;5119112;27;46103;-60
2022/08/16 05:10:42;;;;;;;;;30.00;28.33;;;;;22.35;58.31;100164.03;5119026;27;45218;-61
2022/08/16 05:13:07;;;;;;;;;26.33;23.67;;;;;22.90;58.25;100269.41;5119075;27;45436;-61
2022/08/16 05:15:34;;;;;;;;;33.67;29.00;;;;;22.87;58.18;100262.56;5119371;27;45523;-59
2022/08/16 05:18:00;;;;;;;;;27.33;27.33;;;;;22.28;58.62;100172.28;5117400;27;47661;-60
2022/08/16 05:20:27;;;;;;;;;25.33;25.33;;;;;22.81;58.52;100259.91;5118727;27;45368;-60
2022/08/16 05:22:52;;;;;;;;;26.67;26.67;;;;;22.80;58.09;100258.28;5119125;27;45340;-61
2022/08/16 05:25:18;;;;;;;;;36.33;29.67;;;;;22.92;58.40;100283.53;5117759;27;45497;-60
2022/08/16 05:27:44;;;;;;;;;34.33;31.00;;;;;22.92;58.03;100297.09;5118848;27;45705;-61
2022/08/16 05:30:12;;;;;;;;;28.33;26.00;;;;;22.82;58.44;100269.72;5118759;27;45238;-61
2022/08/16 05:32:38;;;;;;;;;26.33;26.33;;;;;22.90;58.59;100288.38;5119181;27;45526;-61
2022/08/16 05:35:06;;;;;;;;;27.67;27.67;;;;;22.78;58.23;100275.59;5118901;27;45315;-61
2022/08/16 05:37:35;;;;;;;;;29.33;27.33;;;;;22.95;57.89;100291.19;5118487;27;46483;-61
2022/08/16 05:40:02;;;;;;;;;29.67;28.67;;;;;22.98;58.05;100288.00;5118659;27;45258;-61
2022/08/16 05:42:27;;;;;;;;;22.33;21.00;;;;;22.98;57.90;100282.56;5118724;27;45344;-61
2022/08/16 05:44:52;;;;;;;;;32.00;27.33;;;;;22.95;58.00;100289.31;5117702;27;45577;-63
2022/08/16 05:47:18;;;;;;;;;25.33;23.00;;;;;22.97;57.82;100291.78;5118206;27;45635;-61
2022/08/16 05:49:43;;;;;;;;;26.33;26.00;;;;;22.97;57.68;100286.34;5116783;27;45638;-60
2022/08/16 05:52:10;;;;;;;;;29.00;23.33;;;;;23.02;57.96;100289.16;5118683;27;45308;-61
2022/08/16 05:54:36;;;;;;;;;25.67;22.33;;;;;23.13;57.28;100298.38;5118648;27;45432;-61
2022/08/16 05:57:02;;;;;;;;;27.67;25.00;;;;;23.17;57.02;100297.66;5118221;27;45648;-60
2022/08/16 05:59:27;;;;;;;;;24.00;20.33;;;;;23.21;56.70;100304.25;5118360;27;45218;-61
2022/08/16 06:01:53;;;;;;;;;18.33;17.33;;;;;23.14;56.70;100281.03;5118395;27;45479;-61
2022/08/16 06:04:19;;;;;;;;;19.00;19.00;;;;;23.32;56.22;100302.59;5118627;27;45153;-61
2022/08/16 06:06:45;;;;;;;;;24.33;23.33;;;;;23.36;56.79;100309.19;5117912;27;47556;-62
2022/08/16 06:09:11;;;;;;;;;29.33;26.00;;;;;23.32;56.47;100306.13;5118096;27;45614;-62
2022/08/16 06:11:37;;;;;;;;;23.00;19.00;;;;;23.45;56.23;100312.38;5118430;27;45212;-62
2022/08/16 06:14:04;;;;;;;;;22.00;22.00;;;;;23.00;56.01;100231.66;5117009;27;45491;-61
2022/08/16 06:16:29;;;;;;;;;19.00;16.00;;;;;23.58;56.17;100325.69;5118231;27;46757;-60
2022/08/16 06:18:55;;;;;;;;;22.67;22.33;;;;;23.55;55.34;100302.53;5117987;27;45876;-62
2022/08/16 06:21:21;;;;;;;;;22.67;21.33;;;;;23.74;55.43;100319.53;5118182;27;45291;-60
2022/08/16 06:23:46;;;;;;;;;24.33;20.00;;;;;23.81;55.19;100312.06;5118239;27;45489;-60
2022/08/16 06:26:11;;;;;;;;;27.67;24.67;;;;;24.00;54.70;100320.84;5117873;27;45718;-62
2022/08/16 06:28:37;;;;;;;;;27.33;22.67;;;;;24.15;54.45;100310.25;5118002;27;45479;-62
2022/08/16 06:31:04;;;;;;;;;25.33;25.00;;;;;24.24;53.28;100302.56;5117973;27;45505;-62
2022/08/16 06:33:30;;;;;;;;;22.00;21.33;;;;;24.37;53.16;100318.56;5117941;27;45678;-61
2022/08/16 06:35:56;;;;;;;;;25.00;25.00;;;;;24.43;53.15;100317.59;5117674;27;47235;-62
2022/08/16 06:38:22;;;;;;;;;26.33;23.33;;;;;24.39;53.41;100321.84;5117586;27;45171;-62
2022/08/16 06:40:48;;;;;;;;;21.67;21.67;;;;;23.63;53.35;100192.84;5118047;27;45173;-63
2022/08/16 06:43:14;;;;;;;;;24.33;23.67;;;;;24.35;53.04;100309.00;5118091;27;45534;-61
2022/08/16 06:45:41;;;;;;;;;21.00;19.67;;;;;24.25;53.23;100287.91;5117796;27;46699;-61
2022/08/16 06:48:08;;;;;;;;;22.33;22.33;;;;;24.42;53.47;100306.94;5117663;27;45589;-60
2022/08/16 06:50:34;;;;;;;;;22.33;21.67;;;;;24.43;53.34;100317.59;5117906;27;45187;-62
2022/08/16 06:53:00;;;;;;;;;25.00;20.33;;;;;24.32;53.14;100307.63;5118095;27;45216;-61
2022/08/16 06:55:26;;;;;;;;;19.33;18.33;;;;;24.41;53.46;100324.31;5115919;27;48315;-62
2022/08/16 06:57:53;;;;;;;;;25.00;24.00;;;;;24.37;53.25;100312.31;5117458;27;45145;-60
2022/08/16 07:00:19;;;;;;;;;26.67;24.00;;;;;24.09;53.25;100272.41;5117605;27;45483;-60
2022/08/16 07:02:45;;;;;;;;;25.33;24.33;;;;;24.33;53.74;100322.84;5117872;27;45385;-61
2022/08/16 07:05:14;;;;;;;;;25.00;20.00;;;;;24.34;53.44;100319.06;5115724;27;47906;-62
2022/08/16 07:07:41;;;;;;;;;24.33;24.33;;;;;24.43;53.67;100316.78;5117495;27;45295;-61
2022/08/16 07:10:08;;;;;;;;;25.00;22.67;;;;;24.44;53.18;100319.25;5117719;27;45321;-62
2022/08/16 07:12:35;;;;;;;;;27.33;26.00;;;;;24.47;53.48;100335.06;5117889;27;45411;-61
2022/08/16 07:15:02;;;;;;;;;23.33;21.33;;;;;24.34;53.46;100313.63;5120758;27;46570;-61
2022/08/16 07:17:27;;;;;;;;;21.33;21.33;;;;;23.92;53.04;100240.59;5120917;27;45463;-61
2022/08/16 07:19:54;;;;;;;;;26.67;23.00;;;;;24.41;53.32;100329.75;5119343;27;45274;-61
2022/08/16 07:22:21;;;;;;;;;29.33;25.00;;;;;24.42;52.94;100320.53;5121356;27;45152;-60
2022/08/16 07:24:46;;;;;;;;;23.00;21.67;;;;;24.42;52.89;100326.78;5120428;27;46794;-62
2022/08/16 07:27:12;;;;;;;;;28.33;25.33;;;;;24.32;53.00;100313.03;5120696;27;45232;-61
2022/08/16 07:29:38;;;;;;;;;25.00;25.00;;;;;24.35;53.10;100320.69;5120941;27;45350;-62
2022/08/16 07:32:04;;;;;;;;;26.67;22.00;;;;;24.48;52.79;100338.59;5120990;27;45199;-62
2022/08/16 07:34:29;;;;;;;;;21.00;21.00;;;;;24.51;53.25;100322.63;5120240;27;46248;-61
2022/08/16 07:36:55;;;;;;;;;23.33;21.67;;;;;24.63;52.56;100327.16;5120326;27;45375;-61
2022/08/16 07:39:20;;;;;;;;;24.67;24.67;;;;;24.67;52.42;100337.31;5120653;27;45426;-62
2022/08/16 07:41:46;;;;;;;;;19.33;18.67;;;;;24.72;52.16;100342.00;5120571;27;45424;-61
2022/08/16 07:44:11;;;;;;;;;18.00;18.00;;;;;24.75;51.70;100328.72;5120223;27;46327;-61
2022/08/16 07:46:37;;;;;;;;;26.00;23.67;;;;;24.88;51.63;100346.63;5120411;27;45330;-62
2022/08/16 07:49:03;;;;;;;;;23.33;21.00;;;;;24.95;52.00;100343.72;5120027;27;45470;-61
2022/08/16 07:51:33;;;;;;;;;25.00;23.67;;;;;24.96;51.82;100332.59;5119281;27;45250;-62
2022/08/16 07:54:01;;;;;;;;;20.00;18.67;;;;;24.79;51.70;100321.72;5119884;27;47165;-62
2022/08/16 07:56:27;;;;;;;;;19.33;18.67;;;;;24.63;51.41;100264.63;5120002;27;45407;-61
2022/08/16 07:58:53;;;;;;;;;20.33;19.33;;;;;25.16;51.05;100343.81;5119963;27;45332;-60
2022/08/16 08:01:18;;;;;;;;;22.67;18.67;;;;;24.80;50.91;100273.59;5120046;27;45493;-61
2022/08/16 08:03:44;;;;;;;;;25.67;23.00;;;;;25.34;50.89;100339.16;5119799;27;46653;-61
2022/08/16 08:06:10;;;;;;;;;22.33;20.00;;;;;25.45;50.46;100344.50;5119978;27;45261;-62
2022/08/16 08:08:36;;;;;;;;;18.33;18.33;;;;;25.60;50.00;100319.34;5120097;27;45409;-63
2022/08/16 08:11:01;;;;;;;;;27.67;27.00;;;;;26.13;49.06;100341.53;5118560;27;46364;-63
2022/08/16 08:13:28;;;;;;;;;27.00;27.00;;;;;26.41;48.59;100340.47;5119995;27;47678;-63
2022/08/16 08:15:53;;;;;;;;;20.33;20.00;;;;;26.72;48.03;100350.56;5119950;27;45405;-62
2022/08/16 08:18:19;;;;;;;;;18.33;17.67;;;;;26.98;46.98;100336.03;5119722;27;45399;-61
2022/08/16 08:20:44;;;;;;;;;18.67;18.67;;;;;26.94;46.56;100294.00;5119767;27;45534;-61
2022/08/16 08:23:12;;;;;;;;;17.67;17.00;;;;;27.22;46.02;100328.28;5119607;27;46557;-62
2022/08/16 08:25:42;;;;;;;;;25.00;21.67;;;;;27.34;46.11;100340.94;5118316;27;45475;-62
2022/08/16 08:28:08;;;;;;;;;17.67;16.67;;;;;27.21;46.40;100314.91;5119874;27;45226;-62
2022/08/16 08:30:34;;;;;;;;;17.00;17.00;;;;;27.34;45.62;100340.94;5119968;27;45489;-60
2022/08/16 08:33:00;;;;;;;;;18.33;17.00;;;;;26.81;45.74;100294.44;5119298;27;46640;-61
2022/08/16 08:35:26;;;;;;;;;19.67;18.33;;;;;27.14;45.41;100347.09;5119189;27;45382;-61
2022/08/16 08:37:52;;;;;;;;;16.00;15.00;;;;;27.21;44.87;100350.41;5119495;27;45579;-61
2022/08/16 08:40:17;;;;;;;;;18.33;17.33;;;;;27.30;44.46;100350.75;5119531;27;45538;-61
2022/08/16 08:42:44;;;;;;;;;17.00;16.67;;;;;27.43;44.77;100347.53;5119211;27;47336;-61
2022/08/16 08:45:12;;;;;;;;;15.33;14.00;;;;;27.64;44.49;100332.94;5119191;27;45503;-62
2022/08/16 08:47:37;;;;;;;;;20.00;20.00;;;;;28.06;43.51;100351.94;5119100;27;45242;-61
2022/08/16 08:50:05;;;;;;;;;15.67;15.67;;;;;28.34;43.10;100336.16;5119570;27;45602;-62
2022/08/16 08:52:31;;;;;;;;;17.67;16.67;;;;;28.66;42.10;100336.75;5119139;27;45835;-61
2022/08/16 08:54:57;;;;;;;;;20.00;20.00;;;;;28.98;41.47;100354.81;5117795;27;45238;-62
2022/08/16 08:57:22;;;;;;;;;17.67;15.00;;;;;29.21;40.24;100347.91;5119382;27;45388;-61
2022/08/16 08:59:48;;;;;;;;;19.67;19.67;;;;;29.30;40.91;100347.09;5119191;27;45606;-62
2022/08/16 09:02:15;;;;;;;;;14.67;14.00;;;;;28.75;40.40;100239.31;5119050;27;47453;-61
2022/08/16 09:04:44;;;;;;;;;16.00;14.67;;;;;29.29;40.44;100334.50;5117761;27;45440;-62
2022/08/16 09:07:10;;;;;;;;;20.00;17.00;;;;;29.39;40.23;100355.53;5119006;27;45325;-61
2022/08/16 09:09:36;;;;;;;;;18.00;17.67;;;;;29.32;40.26;100347.63;5119174;27;45466;-61
2022/08/16 09:12:03;;;;;;;;;14.00;13.00;;;;;29.28;40.51;100354.75;5117205;27;46389;-61
2022/08/16 09:14:30;;;;;;;;;16.67;16.67;;;;;29.62;40.02;100360.44;5118617;27;45451;-62
2022/08/16 09:16:55;;;;;;;;;14.67;14.67;;;;;29.60;39.34;100279.63;5119081;27;45172;-61
2022/08/16 09:19:21;;;;;;;;;14.67;14.00;;;;;30.16;37.97;100287.56;5119231;27;45330;-62
2022/08/16 09:21:48;;;;;;;;;17.00;15.67;;;;;31.32;36.62;100353.56;5118946;27;46445;-62
2022/08/16 09:24:15;;;;;;;;;11.00;11.00;;;;;31.70;35.19;100358.06;5118776;27;45453;-60
2022/08/16 09:26:40;;;;;;;;;15.33;14.67;;;;;32.01;34.73;100377.75;5117421;27;45519;-62
2022/08/16 09:29:06;;;;;;;;;15.00;14.33;;;;;31.99;34.64;100368.16;5118846;27;45519;-65
2022/08/16 09:31:32;;;;;;;;;13.00;13.00;;;;;31.77;35.42;100365.97;5118647;27;45345;-62
2022/08/16 09:34:00;;;;;;;;;14.67;13.00;;;;;31.67;35.62;100383.38;5118337;27;45501;-63
2022/08/16 09:36:28;;;;;;;;;12.67;11.67;;;;;31.52;35.90;100374.50;5118119;27;45355;-62
2022/08/16 09:38:55;;;;;;;;;14.67;12.67;;;;;31.16;36.00;100350.94;5118737;27;45437;-62
2022/08/16 09:41:21;;;;;;;;;12.00;12.00;;;;;31.14;35.97;100369.63;5118359;27;47372;-62
2022/08/16 09:43:46;;;;;;;;;14.00;12.67;;;;;30.82;36.36;100295.25;5118361;27;45342;-62
2022/08/16 09:46:12;;;;;;;;;14.67;14.67;;;;;31.12;36.19;100360.88;5117984;27;45328;-62
2022/08/16 09:48:40;;;;;;;;;16.67;15.00;;;;;31.23;36.55;100371.75;5118540;27;45461;-62
2022/08/16 09:51:06;;;;;;;;;14.00;14.00;;;;;31.10;36.26;100371.31;5100054;27;47547;-62
2022/08/16 09:53:32;;;;;;;;;17.33;15.00;;;;;30.80;36.83;100371.59;5118310;27;45261;-62
2022/08/16 09:55:58;;;;;;;;;15.00;15.00;;;;;30.53;37.48;100370.13;5118152;27;45433;-62
2022/08/16 09:58:26;;;;;;;;;14.33;14.33;;;;;30.45;37.60;100368.00;5118486;27;45498;-62
2022/08/16 10:00:53;;;;;;;;;14.67;14.67;;;;;30.42;37.60;100365.78;5116465;27;47664;-62
2022/08/16 10:03:19;;;;;;;;;13.00;10.00;;;;;30.50;37.35;100369.88;5118006;27;45387;-62
2022/08/16 10:05:45;;;;;;;;;15.00;14.00;;;;;30.51;37.77;100379.75;5117971;27;45254;-62
2022/08/16 10:08:12;;;;;;;;;19.00;16.67;;;;;30.55;37.68;100398.09;5118036;27;45269;-62
2022/08/16 10:10:41;;;;;;;;;18.00;16.33;;;;;30.64;37.62;100386.56;5117385;27;45466;-61
2022/08/16 10:13:13;;;;;;;;;14.67;13.33;;;;;30.80;37.22;100368.84;5117731;27;45660;-62
2022/08/16 10:15:44;;;;;;;;;14.67;13.67;;;;;30.96;36.98;100364.03;5117938;27;45303;-64
2022/08/16 10:18:12;;;;;;;;;15.67;11.67;;;;;31.25;36.80;100373.13;5118182;27;45490;-61
2022/08/16 10:20:41;;;;;;;;;14.33;13.00;;;;;31.40;35.95;100374.88;5117843;27;46706;-62
2022/08/16 10:23:09;;;;;;;;;17.33;15.00;;;;;31.04;35.89;100314.84;5117933;27;45286;-62
2022/08/16 10:25:39;;;;;;;;;18.33;18.33;;;;;31.30;35.98;100377.75;5117800;27;45482;-62
2022/08/16 10:28:05;;;;;;;;;12.67;11.33;;;;;31.02;36.25;100393.91;5118299;27;45537;-62
2022/08/16 10:30:31;;;;;;;;;16.67;16.67;;;;;30.71;37.31;100381.56;5117061;27;46325;-62
2022/08/16 10:32:56;;;;;;;;;18.00;16.67;;;;;30.53;37.62;100377.53;5117559;27;45320;-62
2022/08/16 10:35:23;;;;;;;;;18.00;17.00;;;;;30.45;37.64;100381.72;5117624;27;45524;-62
2022/08/16 10:37:50;;;;;;;;;16.33;15.33;;;;;29.95;37.66;100326.03;5117775;27;45454;-62
2022/08/16 10:40:16;;;;;;;;;15.67;14.67;;;;;30.17;37.65;100376.94;5117231;27;47487;-62
2022/08/16 10:42:41;;;;;;;;;14.00;14.00;;;;;30.02;38.16;100357.78;5117622;27;45545;-61
2022/08/16 10:45:07;;;;;;;;;16.00;16.00;;;;;30.08;38.77;100373.97;5116135;27;54304;-63
2022/08/16 10:47:32;;;;;;;;;13.00;12.67;;;;;30.03;38.93;100375.88;5116816;27;45493;-62
2022/08/16 10:49:58;;;;;;;;;17.67;17.67;;;;;29.94;38.69;100378.41;5119740;27;46549;-62
2022/08/16 10:52:24;;;;;;;;;18.00;15.33;;;;;29.94;38.78;100373.72;5121443;27;45191;-61
2022/08/16 10:54:49;;;;;;;;;17.67;14.67;;;;;29.89;38.85;100368.28;5121002;27;45357;-62
2022/08/16 10:57:15;;;;;;;;;16.67;16.00;;;;;29.67;39.03;100360.44;5121440;27;45239;-63
2022/08/16 10:59:40;;;;;;;;;18.00;14.67;;;;;29.92;39.12;100375.94;5120780;27;45846;-62
2022/08/16 11:02:08;;;;;;;;;14.00;14.00;;;;;29.96;38.88;100379.75;5120976;27;45221;-62
2022/08/16 11:04:34;;;;;;;;;14.00;14.00;;;;;29.50;38.72;100323.50;5121205;27;45420;-62
2022/08/16 11:06:59;;;;;;;;;15.00;14.00;;;;;29.77;39.11;100392.44;5121079;27;45292;-61